Volcan De Tamasite — ECFE — position and weather

sailwx.info

Track history (hours):
 
Tides and Currents Weather Stations Pressure Air Temp Water Temp Dewpoint Dewpoint Depression Visibility Wind Speed Wind Dir Waves Ship Positions

Volcan De Tamasite

Last reported at 2017-Mar-27 12:16 UTC. Time now 2017-Mar-27 12:41 UTC.
Position N 28°03' W 014°22'.

Length 141 m; draft 5.6 m.

Type: Passenger vessel. MMSI: 224093000.

Date/timePositionNaut miles runAvg speedWind from/ knotsBaromVisibWave heightAir tempDewpointWater temp
2017-Mar-27 12:16N 28°03' W 014°22'0 0.0
2017-Mar-27 11:33N 28°03' W 014°22'0 0.0
2017-Mar-27 10:26N 28°03' W 014°22'8 9.5
2017-Mar-27 09:32N 28°02' W 014°31'2021.0
2017-Mar-27 08:33N 28°04' W 014°54'47 1.9
2017-Mar-26 08:30N 28°19' W 015°45'2121.2
2017-Mar-26 07:31N 28°26' W 016°07'7 0.9
2017-Mar-25 23:12N 28°28' W 016°15'3 4.2
2017-Mar-25 22:33N 28°28' W 016°12'2121.0
2017-Mar-25 21:31N 28°20' W 015°49'5 0.4
2017-Mar-25 09:16N 28°18' W 015°43'1620.7
2017-Mar-25 08:31N 28°24' W 015°60'10 1.0
2017-Mar-24 22:30N 28°28' W 016°11'2120.7
2017-Mar-24 21:30N 28°20' W 015°49'8 0.6
2017-Mar-24 08:29N 28°23' W 015°57'1612.9
2017-Mar-24 07:13N 28°28' W 016°15'0 0.0
2017-Mar-23 23:11N 28°28' W 016°15'4 6.6
2017-Mar-23 22:32N 28°28' W 016°10'2120.3
2017-Mar-23 21:32N 28°20' W 015°48'18 5.5
2017-Mar-23 18:14N 28°13' W 015°29'1620.3
2017-Mar-23 17:26N 28°19' W 015°47'1820.4
2017-Mar-23 16:33N 28°26' W 016°06'7 3.2
2017-Mar-23 14:30N 28°28' W 016°13'2020.8
2017-Mar-23 13:33N 28°21' W 015°52'2120.9
2017-Mar-23 12:33N 28°14' W 015°30'7 6.5
2017-Mar-23 11:33N 28°10' W 015°24'0 0.0
2017-Mar-23 10:33N 28°10' W 015°24'1110.6
2017-Mar-23 09:34N 28°15' W 015°34'2020.1
2017-Mar-23 08:34N 28°22' W 015°55'18 5.3
2017-Mar-23 05:10N 28°28' W 016°15'0 0.0
2017-Mar-23 04:23N 28°28' W 016°15'0 0.0
2017-Mar-23 03:29N 28°28' W 016°15'0 0.0
2017-Mar-23 02:22N 28°28' W 016°15'0 0.0
2017-Mar-23 01:14N 28°28' W 016°15'0 0.0
2017-Mar-23 00:29N 28°28' W 016°15'2 0.9
2017-Mar-22 22:28N 28°28' W 016°13'1920.8
2017-Mar-22 21:33N 28°21' W 015°52'2120.7
2017-Mar-22 20:33N 28°14' W 015°30'7 7.3
2017-Mar-22 19:33N 28°10' W 015°24'2 2.2
2017-Mar-22 18:33N 28°08' W 015°22'2121.1
2017-Mar-22 17:33N 28°05' W 014°58'2121.1
2017-Mar-22 16:33N 28°02' W 014°34'1110.1
2017-Mar-22 15:27N 28°03' W 014°22'0 0.0
2017-Mar-22 14:30N 28°03' W 014°22'0 0.0
2017-Mar-22 13:32N 28°03' W 014°22'0 0.0
2017-Mar-22 12:33N 28°03' W 014°22'0 0.0
2017-Mar-22 11:32N 28°03' W 014°22'10 9.8
2017-Mar-22 10:33N 28°02' W 014°33'2020.5
2017-Mar-22 09:33N 28°04' W 014°56'2120.6
2017-Mar-22 08:33N 28°06' W 015°19'6 5.5
2017-Mar-22 07:33N 28°08' W 015°25'0 0.0
2017-Mar-22 06:33N 28°08' W 015°25'0 0.0
2017-Mar-22 05:33N 28°08' W 015°25'0 0.0
2017-Mar-22 04:33N 28°08' W 015°25'0 0.0
2017-Mar-22 03:33N 28°08' W 015°25'0 0.0
2017-Mar-22 02:33N 28°08' W 015°25'0 0.0
2017-Mar-22 01:33N 28°08' W 015°25'0 0.0
2017-Mar-22 00:33N 28°08' W 015°25'0 0.0
2017-Mar-21 23:33N 28°08' W 015°25'0 0.0
2017-Mar-21 22:33N 28°08' W 015°25'0 0.0
2017-Mar-21 21:33N 28°08' W 015°25'0 0.0
2017-Mar-21 20:34N 28°08' W 015°25'0 0.0
2017-Mar-21 19:34N 28°08' W 015°25'4 3.9
2017-Mar-21 18:33N 28°07' W 015°21'2121.0
2017-Mar-21 17:33N 28°04' W 014°57'2121.0
2017-Mar-21 16:33N 28°02' W 014°33'1010.2
2017-Mar-21 15:33N 28°03' W 014°22'0 0.0
2017-Mar-21 14:33N 28°03' W 014°22'0 0.0
2017-Mar-21 13:32N 28°03' W 014°22'0 0.0
2017-Mar-21 12:33N 28°03' W 014°22'0 0.0
2017-Mar-21 11:33N 28°03' W 014°22'10 8.9
2017-Mar-21 10:27N 28°02' W 014°33'46 1.2
2017-Mar-19 21:26N 28°08' W 015°25'4 0.4
2017-Mar-19 10:24N 28°12' W 015°24'2020.9
2017-Mar-19 09:27N 28°19' W 015°45'2021.1
2017-Mar-19 08:30N 28°26' W 016°06'8 1.0
2017-Mar-19 00:11N 28°28' W 016°15'0 0.0
2017-Mar-18 23:33N 28°28' W 016°15'2 2.0
2017-Mar-18 22:27N 28°28' W 016°12'2021.0
2017-Mar-18 21:30N 28°21' W 015°51'1920.4
2017-Mar-18 20:33N 28°14' W 015°30'2 0.2
2017-Mar-18 09:31N 28°15' W 015°32'2021.0
2017-Mar-18 08:33N 28°22' W 015°54'1917.8
2017-Mar-18 07:28N 28°28' W 016°15'0 0.0
2017-Mar-18 00:14N 28°28' W 016°15'0 0.0
2017-Mar-17 23:08N 28°28' W 016°15'3 3.7
2017-Mar-17 22:26N 28°28' W 016°12'2020.6
2017-Mar-17 21:30N 28°21' W 015°51'  
Track history (hours):
 
Tides and Currents Weather Stations Pressure Air Temp Water Temp Dewpoint Dewpoint Depression Visibility Wind Speed Wind Dir Waves Ship Positions

Volcan De Tamasite

Last reported at 2017-Mar-27 12:16 UTC. Time now 2017-Mar-27 12:41 UTC.
Position N 28°03' W 014°22'.

Length 141 m; draft 5.6 m.

Type: Passenger vessel. MMSI: 224093000.

Date/timePositionNaut miles runAvg speedWind from/ knotsBaromVisibWave heightAir tempDewpointWater temp
2017-Mar-27 12:16N 28°03' W 014°22'0 0.0
2017-Mar-27 11:33N 28°03' W 014°22'0 0.0
2017-Mar-27 10:26N 28°03' W 014°22'8 9.5
2017-Mar-27 09:32N 28°02' W 014°31'2021.0
2017-Mar-27 08:33N 28°04' W 014°54'47 1.9
2017-Mar-26 08:30N 28°19' W 015°45'2121.2
2017-Mar-26 07:31N 28°26' W 016°07'7 0.9
2017-Mar-25 23:12N 28°28' W 016°15'3 4.2
2017-Mar-25 22:33N 28°28' W 016°12'2121.0
2017-Mar-25 21:31N 28°20' W 015°49'5 0.4
2017-Mar-25 09:16N 28°18' W 015°43'1620.7
2017-Mar-25 08:31N 28°24' W 015°60'10 1.0
2017-Mar-24 22:30N 28°28' W 016°11'2120.7
2017-Mar-24 21:30N 28°20' W 015°49'8 0.6
2017-Mar-24 08:29N 28°23' W 015°57'1612.9
2017-Mar-24 07:13N 28°28' W 016°15'0 0.0
2017-Mar-23 23:11N 28°28' W 016°15'4 6.6
2017-Mar-23 22:32N 28°28' W 016°10'2120.3
2017-Mar-23 21:32N 28°20' W 015°48'18 5.5
2017-Mar-23 18:14N 28°13' W 015°29'1620.3
2017-Mar-23 17:26N 28°19' W 015°47'1820.4
2017-Mar-23 16:33N 28°26' W 016°06'7 3.2
2017-Mar-23 14:30N 28°28' W 016°13'2020.8
2017-Mar-23 13:33N 28°21' W 015°52'2120.9
2017-Mar-23 12:33N 28°14' W 015°30'7 6.5
2017-Mar-23 11:33N 28°10' W 015°24'0 0.0
2017-Mar-23 10:33N 28°10' W 015°24'1110.6
2017-Mar-23 09:34N 28°15' W 015°34'2020.1
2017-Mar-23 08:34N 28°22' W 015°55'18 5.3
2017-Mar-23 05:10N 28°28' W 016°15'0 0.0
2017-Mar-23 04:23N 28°28' W 016°15'0 0.0
2017-Mar-23 03:29N 28°28' W 016°15'0 0.0
2017-Mar-23 02:22N 28°28' W 016°15'0 0.0
2017-Mar-23 01:14N 28°28' W 016°15'0 0.0
2017-Mar-23 00:29N 28°28' W 016°15'2 0.9
2017-Mar-22 22:28N 28°28' W 016°13'1920.8
2017-Mar-22 21:33N 28°21' W 015°52'2120.7
2017-Mar-22 20:33N 28°14' W 015°30'7 7.3
2017-Mar-22 19:33N 28°10' W 015°24'2 2.2
2017-Mar-22 18:33N 28°08' W 015°22'2121.1
2017-Mar-22 17:33N 28°05' W 014°58'2121.1
2017-Mar-22 16:33N 28°02' W 014°34'1110.1
2017-Mar-22 15:27N 28°03' W 014°22'0 0.0
2017-Mar-22 14:30N 28°03' W 014°22'0 0.0
2017-Mar-22 13:32N 28°03' W 014°22'0 0.0
2017-Mar-22 12:33N 28°03' W 014°22'0 0.0
2017-Mar-22 11:32N 28°03' W 014°22'10 9.8
2017-Mar-22 10:33N 28°02' W 014°33'2020.5
2017-Mar-22 09:33N 28°04' W 014°56'2120.6
2017-Mar-22 08:33N 28°06' W 015°19'6 5.5
2017-Mar-22 07:33N 28°08' W 015°25'0 0.0
2017-Mar-22 06:33N 28°08' W 015°25'0 0.0
2017-Mar-22 05:33N 28°08' W 015°25'0 0.0
2017-Mar-22 04:33N 28°08' W 015°25'0 0.0
2017-Mar-22 03:33N 28°08' W 015°25'0 0.0
2017-Mar-22 02:33N 28°08' W 015°25'0 0.0
2017-Mar-22 01:33N 28°08' W 015°25'0 0.0
2017-Mar-22 00:33N 28°08' W 015°25'0 0.0
2017-Mar-21 23:33N 28°08' W 015°25'0 0.0
2017-Mar-21 22:33N 28°08' W 015°25'0 0.0
2017-Mar-21 21:33N 28°08' W 015°25'0 0.0
2017-Mar-21 20:34N 28°08' W 015°25'0 0.0
2017-Mar-21 19:34N 28°08' W 015°25'4 3.9
2017-Mar-21 18:33N 28°07' W 015°21'2121.0
2017-Mar-21 17:33N 28°04' W 014°57'2121.0
2017-Mar-21 16:33N 28°02' W 014°33'1010.2
2017-Mar-21 15:33N 28°03' W 014°22'0 0.0
2017-Mar-21 14:33N 28°03' W 014°22'0 0.0
2017-Mar-21 13:32N 28°03' W 014°22'0 0.0
2017-Mar-21 12:33N 28°03' W 014°22'0 0.0
2017-Mar-21 11:33N 28°03' W 014°22'10 8.9
2017-Mar-21 10:27N 28°02' W 014°33'46 1.2
2017-Mar-19 21:26N 28°08' W 015°25'4 0.4
2017-Mar-19 10:24N 28°12' W 015°24'2020.9
2017-Mar-19 09:27N 28°19' W 015°45'2021.1
2017-Mar-19 08:30N 28°26' W 016°06'8 1.0
2017-Mar-19 00:11N 28°28' W 016°15'0 0.0
2017-Mar-18 23:33N 28°28' W 016°15'2 2.0
2017-Mar-18 22:27N 28°28' W 016°12'2021.0
2017-Mar-18 21:30N 28°21' W 015°51'1920.4
2017-Mar-18 20:33N 28°14' W 015°30'2 0.2
2017-Mar-18 09:31N 28°15' W 015°32'2021.0
2017-Mar-18 08:33N 28°22' W 015°54'1917.8
2017-Mar-18 07:28N 28°28' W 016°15'0 0.0
2017-Mar-18 00:14N 28°28' W 016°15'0 0.0
2017-Mar-17 23:08N 28°28' W 016°15'3 3.7
2017-Mar-17 22:26N 28°28' W 016°12'2020.6
2017-Mar-17 21:30N 28°21' W 015°51'  

Dump ship's entire track history